createdAt,value
2018-07-24T00:02:21.374Z,6.17
2018-07-24T00:04:52.977Z,5.90
2018-07-24T00:07:21.888Z,5.97
2018-07-24T00:09:50.968Z,6.03
2018-07-24T00:12:20.697Z,7.27
2018-07-24T00:14:49.954Z,6.20
2018-07-24T00:17:19.189Z,5.87
2018-07-24T00:19:48.174Z,6.03
2018-07-24T00:22:17.405Z,5.97
2018-07-24T00:24:47.589Z,5.87
2018-07-24T00:27:16.590Z,6.83
2018-07-24T00:29:45.545Z,7.10
2018-07-24T00:32:15.459Z,6.30
2018-07-24T00:34:44.288Z,5.37
2018-07-24T00:37:15.073Z,6.08
2018-07-24T00:39:45.595Z,6.57
2018-07-24T00:42:15.808Z,6.03
2018-07-24T00:44:45.033Z,7.27
2018-07-24T00:47:18.608Z,5.53
2018-07-24T00:49:47.408Z,5.37
2018-07-24T00:52:16.537Z,4.65
2018-07-24T00:54:45.773Z,5.20
2018-07-24T00:57:15.553Z,5.50
2018-07-24T00:59:45.453Z,9.67
2018-07-24T01:02:15.249Z,6.07
2018-07-24T01:04:45.621Z,5.73
2018-07-24T01:07:16.895Z,5.30
2018-07-24T01:09:52.596Z,5.87
2018-07-24T01:12:22.890Z,5.40
2018-07-24T01:14:56.125Z,6.00
2018-07-24T01:17:25.768Z,5.47
2018-07-24T01:19:54.352Z,6.03
2018-07-24T01:22:23.104Z,6.20
2018-07-24T01:24:51.633Z,6.33
2018-07-24T01:27:20.265Z,6.27
2018-07-24T01:29:48.792Z,6.73
2018-07-24T01:32:17.415Z,6.23
2018-07-24T01:34:45.953Z,5.57
2018-07-24T01:37:14.528Z,5.80
2018-07-24T01:39:43.360Z,5.55
2018-07-24T01:42:11.928Z,5.43
2018-07-24T01:44:40.461Z,5.90
2018-07-24T01:47:09.036Z,5.57
2018-07-24T01:49:37.569Z,6.27
2018-07-24T01:52:06.147Z,5.60
2018-07-24T01:54:34.671Z,6.27
2018-07-24T01:57:03.244Z,5.67
2018-07-24T01:59:31.779Z,5.28
2018-07-24T02:02:00.343Z,5.90
2018-07-24T02:04:28.884Z,6.22
2018-07-24T02:06:57.512Z,5.53
2018-07-24T02:09:26.089Z,6.43
2018-07-24T02:11:54.672Z,5.90
2018-07-24T02:14:23.225Z,7.03
2018-07-24T02:16:51.816Z,6.80
2018-07-24T02:19:20.351Z,7.40
2018-07-24T02:21:48.953Z,7.40
2018-07-24T02:24:17.492Z,6.77
2018-07-24T02:26:46.081Z,6.00
2018-07-24T02:29:14.634Z,7.00
2018-07-24T02:31:43.338Z,6.03
2018-07-24T02:34:12.188Z,7.00
2018-07-24T02:36:40.768Z,6.40
2018-07-24T02:39:12.557Z,6.40
2018-07-24T02:41:41.121Z,6.23
2018-07-24T02:44:10.225Z,6.77
2018-07-24T02:46:38.806Z,6.67
2018-07-24T02:49:08.084Z,6.15
2018-07-24T02:51:36.740Z,6.20
2018-07-24T02:54:05.556Z,5.87
2018-07-24T02:56:34.124Z,6.43
2018-07-24T02:59:02.673Z,5.97
2018-07-24T03:01:31.245Z,6.70
2018-07-24T03:03:59.905Z,5.87
2018-07-24T03:06:28.436Z,6.95
2018-07-24T03:08:56.984Z,6.33
2018-07-24T03:11:25.586Z,6.67
2018-07-24T03:13:54.144Z,6.60
2018-07-24T03:16:22.688Z,6.37
2018-07-24T03:18:51.308Z,6.87
2018-07-24T03:21:19.829Z,6.93
2018-07-24T03:23:48.404Z,7.73
2018-07-24T03:26:16.921Z,6.57
2018-07-24T03:28:45.467Z,6.70
2018-07-24T03:31:13.994Z,7.00
2018-07-24T03:33:42.544Z,6.77
2018-07-24T03:36:11.168Z,7.07
2018-07-24T03:38:39.764Z,7.37
2018-07-24T03:41:08.376Z,6.73
2018-07-24T03:43:36.944Z,6.73
2018-07-24T03:46:06.081Z,6.80
2018-07-24T03:48:34.646Z,6.87
2018-07-24T03:51:03.181Z,5.67
2018-07-24T03:53:31.780Z,6.60
2018-07-24T03:56:00.300Z,7.90
2018-07-24T03:58:28.873Z,8.00
2018-07-24T04:00:57.390Z,7.00
2018-07-24T04:03:26.800Z,6.97
2018-07-24T04:05:55.401Z,6.77
2018-07-24T04:08:23.992Z,6.43
2018-07-24T04:10:52.532Z,6.63
2018-07-24T04:13:21.172Z,6.83
2018-07-24T04:15:49.701Z,6.13
2018-07-24T04:18:18.250Z,7.37
2018-07-24T04:20:46.777Z,7.07
2018-07-24T04:23:15.322Z,7.60
2018-07-24T04:25:43.846Z,7.20
2018-07-24T04:28:13.328Z,7.70
2018-07-24T04:30:41.997Z,7.60
2018-07-24T04:33:10.560Z,7.37
2018-07-24T04:35:39.380Z,7.57
2018-07-24T04:38:07.925Z,7.43
2018-07-24T04:40:36.488Z,7.97
2018-07-24T04:43:05.068Z,7.87
2018-07-24T04:45:33.600Z,7.87
2018-07-24T04:48:02.148Z,7.33
2018-07-24T04:50:30.953Z,8.30
2018-07-24T04:52:59.541Z,8.17
2018-07-24T04:55:28.096Z,8.57
2018-07-24T04:57:57.545Z,7.95
2018-07-24T05:00:26.106Z,7.73
2018-07-24T05:02:54.635Z,8.00
2018-07-24T05:05:23.201Z,9.20
2018-07-24T05:07:51.725Z,7.87
2018-07-24T05:10:20.404Z,7.83
2018-07-24T05:12:48.913Z,8.17
2018-07-24T05:15:17.484Z,7.78
2018-07-24T05:17:46.009Z,8.93
2018-07-24T05:20:14.577Z,8.37
2018-07-24T05:22:43.089Z,7.77
2018-07-24T05:25:11.696Z,9.43
2018-07-24T05:27:40.224Z,8.67
2018-07-24T05:30:09.172Z,8.50
2018-07-24T05:32:37.692Z,8.87
2018-07-24T05:35:06.660Z,9.13
2018-07-24T05:37:35.221Z,8.63
2018-07-24T05:40:04.049Z,8.90
2018-07-24T05:42:32.605Z,9.37
2018-07-24T05:45:01.153Z,8.70
2018-07-24T05:47:31.274Z,11.13
2018-07-24T05:50:01.833Z,9.07
2018-07-24T05:52:30.471Z,9.77
2018-07-24T05:54:59.028Z,9.10
2018-07-24T05:57:27.876Z,10.15
2018-07-24T05:59:56.423Z,11.33
2018-07-24T06:02:25.038Z,8.57
2018-07-24T06:04:53.596Z,9.80
2018-07-24T06:07:25.969Z,9.43
2018-07-24T06:09:56.784Z,12.43
2018-07-24T06:12:25.408Z,28.63
2018-07-24T06:14:53.989Z,18.97
2018-07-24T06:17:22.613Z,9.50
2018-07-24T06:19:51.156Z,8.80
2018-07-24T06:22:19.680Z,9.20
2018-07-24T06:24:48.220Z,8.47
2018-07-24T06:27:16.716Z,8.93
2018-07-24T06:29:45.267Z,8.13
2018-07-24T06:32:14.303Z,8.90
2018-07-24T06:34:42.856Z,11.00
2018-07-24T06:37:12.369Z,8.87
2018-07-24T06:39:40.977Z,9.50
2018-07-24T06:42:15.662Z,9.90
2018-07-24T06:44:44.469Z,8.43
2018-07-24T06:47:13.351Z,7.87
2018-07-24T06:49:41.903Z,7.77
2018-07-24T06:52:15.423Z,7.60
2018-07-24T06:54:44.533Z,9.03
2018-07-24T06:57:13.064Z,7.90
2018-07-24T06:59:42.356Z,9.17
2018-07-24T07:02:11.067Z,8.05
2018-07-24T07:04:39.593Z,10.40
2018-07-24T07:07:08.125Z,11.30
2018-07-24T07:09:36.722Z,8.83
2018-07-24T07:12:05.253Z,9.70
2018-07-24T07:14:33.772Z,8.70
2018-07-24T07:17:02.340Z,9.00
2018-07-24T07:19:30.852Z,8.77
2018-07-24T07:21:59.436Z,9.90
2018-07-24T07:24:28.536Z,9.10
2018-07-24T07:26:57.081Z,8.77
2018-07-24T07:29:25.627Z,9.33
2018-07-24T07:31:54.196Z,9.30
2018-07-24T07:34:22.720Z,9.57
2018-07-24T07:36:51.276Z,8.80
2018-07-24T07:39:19.901Z,8.87
2018-07-24T07:41:48.506Z,9.35
2018-07-24T07:44:17.021Z,9.23
2018-07-24T07:46:45.583Z,9.80
2018-07-24T07:49:14.109Z,9.47
2018-07-24T07:51:42.669Z,8.30
2018-07-24T07:54:11.192Z,10.30
2018-07-24T07:56:39.741Z,9.30
2018-07-24T07:59:13.564Z,9.20
2018-07-24T08:01:42.267Z,7.77
2018-07-24T08:04:10.831Z,7.47
2018-07-24T08:06:39.479Z,8.50
2018-07-24T08:09:09.324Z,8.33
2018-07-24T08:11:37.948Z,8.87
2018-07-24T08:14:06.481Z,9.70
2018-07-24T08:16:39.835Z,8.38
2018-07-24T08:19:08.374Z,7.87
2018-07-24T08:21:36.992Z,8.28
2018-07-24T08:24:05.622Z,8.60
2018-07-24T08:26:37.992Z,8.35
2018-07-24T08:29:06.877Z,7.87
2018-07-24T08:31:35.428Z,8.33
2018-07-24T08:34:09.075Z,8.40
2018-07-24T08:36:37.822Z,7.93
2018-07-24T08:39:09.307Z,7.73
2018-07-24T08:41:37.960Z,7.25
2018-07-24T08:44:06.524Z,8.23
2018-07-24T08:46:35.152Z,9.43
2018-07-24T08:49:03.711Z,8.37
2018-07-24T08:51:32.581Z,7.90
2018-07-24T08:54:01.513Z,7.87
2018-07-24T08:56:29.727Z,8.43
2018-07-24T08:58:58.805Z,9.60
2018-07-24T09:01:33.926Z,10.03
2018-07-24T09:04:02.719Z,8.17
2018-07-24T09:06:31.313Z,8.27
2018-07-24T09:08:59.856Z,8.70
2018-07-24T09:11:28.992Z,7.60
2018-07-24T09:13:57.537Z,7.87
2018-07-24T09:16:26.096Z,8.37
2018-07-24T09:18:54.917Z,8.13
2018-07-24T09:21:29.026Z,8.60
2018-07-24T09:23:57.740Z,8.40
2018-07-24T09:26:26.321Z,8.27
2018-07-24T09:28:54.856Z,9.67
2018-07-24T09:31:23.496Z,8.77
2018-07-24T09:33:52.030Z,7.83
2018-07-24T09:36:20.609Z,8.07
2018-07-24T09:38:49.192Z,8.10
2018-07-24T09:41:17.784Z,11.77
2018-07-24T09:43:46.341Z,8.00
2018-07-24T09:46:14.880Z,8.50
2018-07-24T09:48:48.012Z,8.83
2018-07-24T09:51:17.083Z,7.73
2018-07-24T09:53:46.372Z,8.18
2018-07-24T09:56:15.620Z,7.80
2018-07-24T09:58:45.313Z,8.00
2018-07-24T10:01:19.913Z,8.80
2018-07-24T10:03:48.834Z,7.87
2018-07-24T10:06:18.634Z,8.20
2018-07-24T10:08:47.735Z,8.40
2018-07-24T10:11:22.808Z,7.67
2018-07-24T10:13:51.832Z,8.07
2018-07-24T10:16:20.608Z,7.20
2018-07-24T10:18:52.223Z,8.30
2018-07-24T10:21:21.247Z,8.37
2018-07-24T10:23:49.986Z,8.17
2018-07-24T10:26:21.914Z,7.80
2018-07-24T10:28:51.090Z,8.10
2018-07-24T10:31:19.756Z,7.70
2018-07-24T10:33:54.357Z,7.83
2018-07-24T10:36:24.062Z,7.53
2018-07-24T10:38:54.078Z,8.03
2018-07-24T10:41:25.806Z,7.97
2018-07-24T10:43:58.254Z,8.13
2018-07-24T10:46:35.637Z,8.10
2018-07-24T10:49:10.343Z,7.63
2018-07-24T10:51:39.850Z,7.83
2018-07-24T10:54:12.917Z,7.53
2018-07-24T10:56:48.509Z,7.65
2018-07-24T10:59:17.272Z,7.60
2018-07-24T11:01:47.951Z,7.83
2018-07-24T11:04:16.697Z,7.60
2018-07-24T11:06:46.242Z,8.50
2018-07-24T11:09:15.593Z,7.20
2018-07-24T11:11:47.690Z,7.60
2018-07-24T11:14:17.449Z,7.60
2018-07-24T11:16:47.793Z,6.77
2018-07-24T11:19:18.754Z,6.93
2018-07-24T11:21:48.062Z,7.53
2018-07-24T11:24:19.647Z,6.97
2018-07-24T11:26:48.816Z,8.53
2018-07-24T11:29:18.620Z,6.97
2018-07-24T11:31:48.132Z,6.60
2018-07-24T11:34:16.713Z,6.72
2018-07-24T11:36:45.805Z,6.70
2018-07-24T11:39:14.418Z,7.23
2018-07-24T11:41:42.976Z,7.57
2018-07-24T11:44:12.506Z,6.97
2018-07-24T11:46:41.575Z,6.67
2018-07-24T11:49:10.294Z,7.40
2018-07-24T11:51:39.841Z,7.10
2018-07-24T11:54:08.483Z,7.57
2018-07-24T11:56:37.759Z,10.60
2018-07-24T11:59:07.040Z,6.70
2018-07-24T12:01:35.568Z,6.57
2018-07-24T12:04:04.129Z,6.70
2018-07-24T12:06:32.713Z,7.10
2018-07-24T12:09:01.273Z,7.50
2018-07-24T12:11:30.277Z,6.97
2018-07-24T12:13:59.692Z,7.27
2018-07-24T12:16:28.423Z,7.67
2018-07-24T12:18:57.341Z,7.00
2018-07-24T12:21:26.912Z,7.63
2018-07-24T12:23:55.857Z,8.03
2018-07-24T12:26:24.496Z,7.73
2018-07-24T12:28:53.048Z,7.27
2018-07-24T12:31:21.652Z,7.10
2018-07-24T12:33:54.439Z,7.67
2018-07-24T12:36:23.648Z,7.50
2018-07-24T12:38:52.831Z,7.83
2018-07-24T12:41:22.088Z,8.77
2018-07-24T12:43:52.544Z,7.67
2018-07-24T12:46:21.581Z,7.43
2018-07-24T12:48:50.168Z,7.97
2018-07-24T12:51:18.977Z,6.80
2018-07-24T12:53:48.208Z,7.50
2018-07-24T12:56:19.876Z,7.23
2018-07-24T12:58:49.064Z,7.47
2018-07-24T13:01:17.796Z,8.03
2018-07-24T13:03:46.968Z,7.37
2018-07-24T13:06:17.162Z,7.00
2018-07-24T13:08:46.025Z,7.73
2018-07-24T13:11:15.033Z,7.30
2018-07-24T13:13:45.512Z,7.23
2018-07-24T13:16:15.294Z,7.17
2018-07-24T13:18:50.254Z,7.60
2018-07-24T13:21:19.698Z,7.40
2018-07-24T13:23:48.867Z,6.60
2018-07-24T13:26:17.437Z,7.17
2018-07-24T13:28:46.439Z,7.12
2018-07-24T13:31:15.065Z,7.73
2018-07-24T13:33:44.104Z,6.77
2018-07-24T13:36:14.397Z,7.53
2018-07-24T13:38:44.362Z,7.60
2018-07-24T13:41:14.802Z,7.17
2018-07-24T13:43:43.865Z,6.70
2018-07-24T13:46:13.458Z,6.87
2018-07-24T13:48:42.002Z,6.67
2018-07-24T13:51:10.809Z,8.47
2018-07-24T13:53:39.360Z,7.63
2018-07-24T13:56:08.016Z,7.30
2018-07-24T13:58:36.568Z,6.97
2018-07-24T14:01:06.284Z,7.30
2018-07-24T14:03:34.942Z,8.13
2018-07-24T14:06:03.762Z,7.57
2018-07-24T14:08:32.378Z,7.07
2018-07-24T14:11:00.917Z,7.43
2018-07-24T14:13:30.680Z,7.17
2018-07-24T14:15:59.374Z,6.83
2018-07-24T14:18:27.948Z,7.20
2018-07-24T14:20:56.524Z,7.23
2018-07-24T14:23:25.069Z,13.10
2018-07-24T14:25:53.680Z,21.83
2018-07-24T14:28:22.236Z,7.07
2018-07-24T14:30:50.833Z,8.57
2018-07-24T14:33:19.452Z,6.93
2018-07-24T14:35:48.084Z,8.90
2018-07-24T14:38:16.780Z,8.93
2018-07-24T14:40:45.485Z,10.40
2018-07-24T14:43:14.020Z,7.13
2018-07-24T14:45:42.620Z,7.10
2018-07-24T14:48:11.160Z,6.47
2018-07-24T14:50:39.753Z,7.13
2018-07-24T14:53:08.296Z,6.47
2018-07-24T14:55:36.873Z,6.50
2018-07-24T14:58:05.471Z,7.28
2018-07-24T15:00:34.117Z,6.62
2018-07-24T15:03:02.673Z,6.20
2018-07-24T15:05:31.276Z,6.30
2018-07-24T15:07:59.808Z,6.07
2018-07-24T15:10:28.348Z,7.23
2018-07-24T15:12:56.920Z,7.13
2018-07-24T15:15:25.465Z,6.30
2018-07-24T15:17:54.032Z,7.60
2018-07-24T15:20:22.836Z,6.90
2018-07-24T15:22:51.420Z,6.43
2018-07-24T15:25:20.276Z,7.27
2018-07-24T15:27:48.836Z,7.10
2018-07-24T15:30:17.387Z,7.55
2018-07-24T15:32:45.955Z,6.93
2018-07-24T15:35:14.616Z,7.12
2018-07-24T15:37:46.767Z,7.27
2018-07-24T15:40:15.381Z,6.45
2018-07-24T15:42:43.960Z,6.43
2018-07-24T15:45:13.092Z,7.17
2018-07-24T15:47:41.832Z,7.40
2018-07-24T15:50:12.877Z,6.90
2018-07-24T15:52:41.473Z,6.90
2018-07-24T15:55:10.072Z,6.90
2018-07-24T15:57:38.695Z,7.10
2018-07-24T16:00:07.348Z,7.37
2018-07-24T16:02:36.103Z,6.87
2018-07-24T16:05:05.040Z,7.67
2018-07-24T16:07:33.609Z,7.03
2018-07-24T16:10:02.325Z,7.10
2018-07-24T16:12:31.437Z,7.07
2018-07-24T16:14:59.982Z,7.50
2018-07-24T16:17:28.552Z,7.70
2018-07-24T16:19:57.094Z,7.30
2018-07-24T16:22:25.672Z,7.53
2018-07-24T16:24:54.289Z,7.13
2018-07-24T16:27:22.896Z,7.83
2018-07-24T16:29:51.455Z,7.60
2018-07-24T16:32:20.149Z,7.80
2018-07-24T16:34:48.684Z,7.67
2018-07-24T16:37:17.371Z,7.57
2018-07-24T16:39:45.881Z,6.93
2018-07-24T16:42:14.444Z,7.80
2018-07-24T16:44:43.160Z,7.17
2018-07-24T16:47:12.109Z,7.37
2018-07-24T16:49:41.968Z,7.60
2018-07-24T16:52:11.482Z,8.27
2018-07-24T16:54:40.064Z,7.10
2018-07-24T16:57:08.704Z,6.87
2018-07-24T16:59:37.343Z,6.90
2018-07-24T17:02:05.944Z,7.30
2018-07-24T17:04:34.495Z,6.93
2018-07-24T17:07:03.088Z,7.37
2018-07-24T17:09:32.552Z,6.67
2018-07-24T17:12:01.105Z,7.17
2018-07-24T17:14:29.712Z,7.13
2018-07-24T17:16:58.576Z,6.87
2018-07-24T17:19:27.469Z,6.75
2018-07-24T17:21:56.061Z,6.47
2018-07-24T17:24:24.692Z,6.55
2018-07-24T17:26:53.231Z,6.33
2018-07-24T17:29:21.813Z,7.60
2018-07-24T17:31:50.519Z,7.08
2018-07-24T17:34:19.337Z,6.20
2018-07-24T17:36:49.061Z,7.33
2018-07-24T17:39:17.933Z,5.83
2018-07-24T17:41:46.520Z,6.57
2018-07-24T17:44:15.085Z,6.60
2018-07-24T17:46:46.968Z,6.67
2018-07-24T17:49:19.190Z,6.60
2018-07-24T17:51:54.751Z,7.13
2018-07-24T17:54:23.558Z,6.62
2018-07-24T17:56:52.109Z,6.05
2018-07-24T17:59:21.166Z,6.53
2018-07-24T18:01:49.708Z,6.10
2018-07-24T18:04:18.273Z,6.75
2018-07-24T18:06:46.792Z,6.63
2018-07-24T18:09:15.376Z,6.12
2018-07-24T18:11:44.088Z,7.60
2018-07-24T18:14:12.661Z,7.42
2018-07-24T18:16:41.220Z,7.30
2018-07-24T18:19:09.826Z,6.70
2018-07-24T18:21:38.348Z,7.05
2018-07-24T18:24:07.267Z,8.58
2018-07-24T18:26:35.836Z,8.33
2018-07-24T18:29:04.439Z,8.30
2018-07-24T18:31:32.982Z,7.83
2018-07-24T18:34:01.550Z,7.53
2018-07-24T18:36:30.076Z,7.33
2018-07-24T18:38:58.641Z,7.57
2018-07-24T18:41:27.205Z,7.33
2018-07-24T18:43:55.785Z,6.60
2018-07-24T18:46:25.302Z,7.53
2018-07-24T18:48:58.858Z,7.00
2018-07-24T18:51:27.416Z,8.00
2018-07-24T18:53:56.292Z,8.27
2018-07-24T18:56:24.828Z,7.97
2018-07-24T18:58:53.444Z,8.03
2018-07-24T19:01:21.964Z,9.10
2018-07-24T19:03:50.544Z,8.30
2018-07-24T19:06:19.099Z,8.83
2018-07-24T19:08:47.676Z,8.73
2018-07-24T19:11:16.230Z,8.23
2018-07-24T19:13:44.828Z,9.03
2018-07-24T19:16:13.363Z,9.30
2018-07-24T19:18:41.945Z,8.97
2018-07-24T19:21:10.508Z,9.33
2018-07-24T19:23:39.061Z,9.17
2018-07-24T19:26:07.652Z,8.97
2018-07-24T19:28:36.200Z,9.40
2018-07-24T19:31:05.977Z,9.83
2018-07-24T19:33:34.558Z,9.57
2018-07-24T19:36:03.134Z,9.73
2018-07-24T19:38:31.682Z,10.60
2018-07-24T19:41:00.281Z,9.60
2018-07-24T19:43:28.828Z,10.57
2018-07-24T19:45:57.400Z,10.33
2018-07-24T19:48:25.932Z,9.87
2018-07-24T19:50:54.505Z,10.27
2018-07-24T19:53:23.069Z,10.60
2018-07-24T19:55:51.672Z,10.37
2018-07-24T19:58:20.220Z,11.15
2018-07-24T20:00:48.797Z,9.90
2018-07-24T20:03:17.344Z,11.83
2018-07-24T20:05:45.928Z,11.83
2018-07-24T20:08:14.501Z,11.78
2018-07-24T20:10:43.090Z,10.17
2018-07-24T20:13:11.633Z,11.03
2018-07-24T20:15:40.436Z,11.20
2018-07-24T20:18:09.004Z,10.80
2018-07-24T20:20:37.587Z,12.30
2018-07-24T20:23:07.384Z,11.30
2018-07-24T20:25:37.012Z,11.55
2018-07-24T20:28:05.672Z,11.40
2018-07-24T20:30:34.309Z,11.03
2018-07-24T20:33:02.865Z,10.83
2018-07-24T20:35:31.619Z,11.50
2018-07-24T20:38:00.013Z,11.67
2018-07-24T20:40:28.616Z,12.10
2018-07-24T20:42:57.170Z,12.07
2018-07-24T20:45:25.841Z,11.70
2018-07-24T20:47:54.372Z,11.38
2018-07-24T20:50:23.011Z,10.75
2018-07-24T20:52:51.567Z,11.07
2018-07-24T20:55:20.160Z,11.65
2018-07-24T20:57:48.688Z,12.90
2018-07-24T21:00:17.261Z,11.33
2018-07-24T21:02:45.799Z,11.40
2018-07-24T21:05:14.361Z,10.77
2018-07-24T21:07:42.885Z,10.73
2018-07-24T21:10:16.832Z,12.20
2018-07-24T21:12:46.568Z,11.03
2018-07-24T21:15:15.220Z,11.47
2018-07-24T21:17:44.016Z,10.93
2018-07-24T21:20:12.604Z,12.20
2018-07-24T21:22:41.200Z,11.87
2018-07-24T21:25:09.766Z,11.43
2018-07-24T21:27:38.364Z,11.90
2018-07-24T21:30:08.155Z,13.33
2018-07-24T21:32:37.297Z,21.15
2018-07-24T21:35:05.909Z,11.73
2018-07-24T21:37:34.707Z,12.77
2018-07-24T21:40:03.303Z,11.07
2018-07-24T21:42:31.985Z,12.03
2018-07-24T21:45:00.476Z,12.63
2018-07-24T21:47:29.057Z,12.40
2018-07-24T21:50:00.320Z,12.07
2018-07-24T21:52:28.948Z,12.20
2018-07-24T21:54:57.564Z,11.93
2018-07-24T21:57:26.145Z,13.20
2018-07-24T21:59:54.737Z,11.50
2018-07-24T22:02:23.328Z,11.77
2018-07-24T22:04:52.161Z,11.37
2018-07-24T22:07:21.131Z,11.13
2018-07-24T22:09:49.693Z,12.17
2018-07-24T22:12:18.264Z,11.30
2018-07-24T22:14:46.911Z,12.63
2018-07-24T22:17:16.313Z,12.27
2018-07-24T22:19:46.563Z,12.82
2018-07-24T22:22:15.503Z,12.07
2018-07-24T22:24:44.317Z,11.97
2018-07-24T22:27:12.888Z,14.43
2018-07-24T22:29:41.447Z,13.17
2018-07-24T22:32:15.474Z,12.57
2018-07-24T22:34:48.945Z,12.83
2018-07-24T22:37:20.527Z,11.70
2018-07-24T22:39:51.303Z,12.70
2018-07-24T22:42:25.531Z,11.77
2018-07-24T22:44:56.239Z,11.50
2018-07-24T22:47:26.309Z,13.03
2018-07-24T22:49:58.023Z,12.23
2018-07-24T22:52:29.046Z,11.93
2018-07-24T22:55:00.033Z,12.60
2018-07-24T22:57:32.886Z,12.00
2018-07-24T23:00:05.680Z,12.30
2018-07-24T23:02:37.702Z,12.03
2018-07-24T23:05:08.735Z,12.30
2018-07-24T23:07:40.936Z,12.97
2018-07-24T23:10:12.532Z,12.33
2018-07-24T23:12:47.940Z,13.17
2018-07-24T23:15:17.282Z,13.83
2018-07-24T23:17:50.773Z,14.00
2018-07-24T23:20:19.714Z,12.43
2018-07-24T23:22:49.257Z,12.97
2018-07-24T23:25:18.099Z,12.97
2018-07-24T23:27:47.180Z,12.80
2018-07-24T23:30:17.311Z,11.97
2018-07-24T23:32:45.869Z,12.13
2018-07-24T23:35:15.961Z,12.37
2018-07-24T23:37:45.940Z,12.83
2018-07-24T23:40:19.505Z,13.30
2018-07-24T23:42:54.253Z,12.90
2018-07-24T23:45:24.729Z,13.30
2018-07-24T23:47:58.685Z,13.17
2018-07-24T23:50:28.672Z,13.37
2018-07-24T23:52:58.134Z,13.10
2018-07-24T23:55:30.978Z,13.00
2018-07-24T23:58:01.976Z,13.93
